< < Back
Terminal Aerodrome Forecast


Current Version              Previous Versions:   1  2  3  4  5  6  7  8  9  

Terminal Aerodrome Forecast

629
FTUS44 KBMX 190837 AAA
TAFBHM
TAF AMD
KBHM 190837Z 1909/2006 16008KT P6SM OVC015
      TEMPO 1909/1913 2SM +SHRA BR BKN009
     FM191300 17008KT P6SM OVC007
     FM191600 22009KT P6SM OVC015
     FM192000 23009KT P6SM SCT050 OVC250=

Latest METAR

607
SAUS70 KWBC 191200 RRH
MTRBHM
METAR KBHM 191153Z 22012G19KT 3SM RA BR BKN010 BKN015 OVC023 19/18 A2979
RMK AO2 RAB04 SLP082 P0039 60081 70088 T01940183 10206 20194
53002


USA.gov is the U.S. government's official web portal to all federal, state and local government web resources and services.